Date,TemperatureHighF,TemperatureAvgF,TemperatureLowF,DewpointHighF,DewpointAvgF,DewpointLowF,HumidityHigh,HumidityAvg,HumidityLow,PressureMaxIn,PressureMinIn,WindSpeedMaxMPH,WindSpeedAvgMPH,GustSpeedMaxMPH,PrecipitationSumIn
2013-3-1,89.8,66.1,46.0,43.4,34.2,28.2,57,33,18,30.32,30.12,10,3,0,0.00
2013-3-2,84.2,64.6,50.0,45.6,37.8,29.4,71,39,25,30.21,30.04,11,2,0,0.00
2013-3-3,70.7,56.6,46.9,52.2,46.9,41.7,89,71,50,30.11,29.94,9,2,0,0.00
2013-3-4,68.9,52.2,41.0,56.6,46.2,39.1,94,81,62,30.10,30.01,8,2,0,0.00
2013-3-5,66.9,52.1,42.1,57.1,47.2,39.9,94,84,67,30.14,30.00,12,2,0,0.00
2013-3-6,57.9,51.2,42.1,48.6,46.0,39.9,93,83,70,30.16,30.00,5,1,0,0.00
2013-3-7,60.8,53.0,47.7,51.6,47.2,42.8,95,82,59,30.02,29.83,9,2,0,0.40
2013-3-8,60.3,50.4,43.2,50.1,45.2,41.6,95,83,67,30.02,29.78,7,2,0,0.60
2013-3-9,64.8,50.8,38.1,54.3,43.9,36.8,96,79,54,30.22,30.03,7,2,0,0.10
2013-3-10,79.7,56.3,37.9,53.0,42.4,34.4,88,64,36,30.26,30.15,9,2,0,0.00
2013-3-11,72.7,56.0,40.1,50.3,42.4,34.1,84,63,42,30.19,30.04,10,3,0,0.00
2013-3-12,73.9,56.5,40.8,55.7,45.6,36.9,87,69,47,30.09,29.98,8,2,0,0.00
2013-3-13,77.4,59.3,43.9,59.2,47.9,39.3,86,68,47,30.11,30.00,8,2,0,0.00
2013-3-14,74.1,57.3,41.7,58.5,48.6,39.3,92,74,53,30.08,29.97,8,2,0,0.00
2013-3-15,70.9,56.2,48.6,60.2,51.2,46.1,95,84,68,30.02,29.89,11,2,0,0.00
2013-3-16,62.8,54.0,47.7,56.3,50.9,45.4,96,89,75,29.97,29.84,7,2,0,0.00
2013-3-17,113.4,52.8,42.8,99.9,48.3,41.5,95,86,67,29.99,29.88,8,2,0,0.00
2013-3-18,65.3,52.5,43.0,57.6,48.5,41.7,96,87,72,30.09,29.97,12,2,0,0.00
2013-3-19,68.4,55.3,43.7,59.1,50.3,42.4,96,84,67,30.12,30.02,11,2,0,0.00
2013-3-20,68.9,57.0,30.0,59.9,51.5,28.7,96,83,67,30.09,29.93,9,2,0,0.00
2013-3-21,71.1,56.5,45.0,58.7,50.2,43.4,95,80,63,29.95,29.76,9,3,0,0.00
2013-3-22,72.9,56.0,39.6,56.3,46.7,38.0,94,74,48,29.89,29.78,9,2,0,0.00
2013-3-23,74.1,54.1,36.7,52.3,43.6,30.2,91,70,43,29.99,29.88,8,2,0,0.00
2013-3-24,73.8,55.5,39.4,56.1,47.0,37.5,93,75,53,30.02,29.87,11,2,0,0.00
2013-3-25,71.6,55.3,40.3,57.1,47.8,37.6,91,77,59,29.97,29.88,8,2,0,0.00
2013-3-26,69.1,54.8,42.1,57.7,48.7,40.5,95,81,64,29.97,29.89,9,2,0,0.00
2013-3-27,70.0,55.8,44.6,58.5,49.8,42.9,95,81,64,30.03,29.93,9,2,0,0.00
2013-3-28,70.5,55.2,45.7,59.1,50.4,43.8,95,85,66,30.09,29.98,10,2,0,0.00
2013-3-29,70.9,56.6,45.3,61.0,52.0,43.7,96,85,68,30.11,30.02,9,2,0,0.00
2013-3-30,71.2,58.9,53.4,59.6,53.3,49.9,93,82,65,30.12,30.02,10,3,0,0.00
2013-3-31,67.3,58.2,53.4,59.1,54.0,50.6,91,86,73,30.11,30.03,8,2,0,0.02